Time;durP1;ratioP1;P1;durP2;ratioP2;P2;SDS_P1;SDS_P2;PMS_P1;PMS_P2;Temp;Humidity;BMP_temperature;BMP_pressure;BME280_temperature;BME280_humidity;BME280_pressure;Samples;Min_cycle;Max_cycle;Signal;HPM_P1;HPM_P2
2023/07/10 00:02:25;;;;;;;;;;;;;;;16.39;87.72;95703.72;5093808;28;1104;-53
2023/07/10 00:04:51;;;;;;;;;;;;;;;16.60;86.20;95700.28;5093873;28;1065;-53
2023/07/10 00:07:17;;;;;;;;;;;;;;;16.28;86.63;95704.97;5093720;28;1984;-52
2023/07/10 00:09:43;;;;;;;;;;;;;;;15.85;89.58;95706.53;5093818;28;1023;-53
2023/07/10 00:12:13;;;;;;;;;;;;;;;15.90;89.54;95701.44;5093681;28;1311;-53
2023/07/10 00:14:39;;;;;;;;;;;;;;;16.14;88.80;95701.25;5093937;28;1035;-53
2023/07/10 00:17:05;;;;;;;;;;;;;;;16.24;87.75;95706.38;5093873;28;985;-53
2023/07/10 00:19:31;;;;;;;;;;;;;;;16.21;87.93;95706.72;5093654;28;1846;-52
2023/07/10 00:21:57;;;;;;;;;;;;;;;16.30;87.68;95708.34;5093728;28;1029;-53
2023/07/10 00:24:23;;;;;;;;;;;;;;;16.38;86.66;95718.22;5093337;28;1537;-53
2023/07/10 00:26:49;;;;;;;;;;;;;;;16.40;86.66;95708.06;5093416;28;1976;-53
2023/07/10 00:29:16;;;;;;;;;;;;;;;16.35;87.20;95710.47;5093682;28;973;-53
2023/07/10 00:31:42;;;;;;;;;;;;;;;16.28;87.48;95713.06;5093771;28;1248;-53
2023/07/10 00:34:15;;;;;;;;;;;;;;;16.11;87.65;95709.69;5093511;28;1127;-53
2023/07/10 00:36:41;;;;;;;;;;;;;;;15.74;89.64;95721.25;5093550;28;1004;-53
2023/07/10 00:39:27;;;;;;;;;;;;;;;15.64;90.28;95721.47;5093461;28;1056;-52
2023/07/10 00:42:20;;;;;;;;;;;;;;;15.83;89.28;95713.97;5093453;28;1045;-53
2023/07/10 00:44:51;;;;;;;;;;;;;;;15.92;89.65;95718.28;5090615;28;1910;-53
2023/07/10 00:47:17;;;;;;;;;;;;;;;16.03;88.35;95722.38;5093261;28;1992;-53
2023/07/10 00:49:43;;;;;;;;;;;;;;;15.92;88.93;95720.97;5094746;28;1059;-53
2023/07/10 00:52:12;;;;;;;;;;;;;;;15.74;88.66;95723.97;5097668;28;1000;-53
2023/07/10 00:54:41;;;;;;;;;;;;;;;15.50;90.41;95715.00;5097580;28;1053;-53
2023/07/10 00:57:13;;;;;;;;;;;;;;;15.47;90.42;95714.50;5097547;28;985;-53
2023/07/10 00:59:40;;;;;;;;;;;;;;;15.60;90.30;95720.97;5097331;28;2014;-52
2023/07/10 01:02:12;;;;;;;;;;;;;;;15.57;90.26;95728.59;5097321;28;1950;-53
2023/07/10 01:04:40;;;;;;;;;;;;;;;15.36;90.43;95729.22;5097322;28;1994;-53
2023/07/10 01:07:07;;;;;;;;;;;;;;;15.33;91.06;95725.03;5097326;28;1989;-53
2023/07/10 01:09:33;;;;;;;;;;;;;;;15.36;90.90;95730.03;5097284;28;993;-53
2023/07/10 01:11:59;;;;;;;;;;;;;;;15.23;91.25;95729.78;5097197;28;1052;-53
2023/07/10 01:14:25;;;;;;;;;;;;;;;15.46;90.73;95726.28;5096986;28;1041;-53
2023/07/10 01:16:52;;;;;;;;;;;;;;;15.41;90.28;95721.44;5097035;28;1029;-52
2023/07/10 01:19:20;;;;;;;;;;;;;;;15.13;91.90;95726.47;5097128;28;1003;-53
2023/07/10 01:21:46;;;;;;;;;;;;;;;15.26;92.19;95724.03;5097129;28;1031;-53
2023/07/10 01:24:12;;;;;;;;;;;;;;;15.28;91.66;95724.69;5096705;28;1514;-52
2023/07/10 01:26:39;;;;;;;;;;;;;;;15.30;91.83;95725.38;5096634;28;1532;-53
2023/07/10 01:29:16;;;;;;;;;;;;;;;15.47;90.54;95726.13;5096975;28;1902;-53
2023/07/10 01:31:43;;;;;;;;;;;;;;;15.65;89.42;95717.78;5096966;28;1055;-53
2023/07/10 01:34:10;;;;;;;;;;;;;;;15.69;88.66;95719.09;5096902;28;1039;-53
2023/07/10 01:36:37;;;;;;;;;;;;;;;15.59;89.40;95727.41;5096650;28;1917;-53
2023/07/10 01:39:23;;;;;;;;;;;;;;;15.64;88.95;95723.34;5096771;28;964;-53
2023/07/10 01:41:49;;;;;;;;;;;;;;;15.41;90.05;95718.75;5096601;28;1029;-53
2023/07/10 01:44:26;;;;;;;;;;;;;;;15.06;91.94;95723.63;5096674;28;969;-53
2023/07/10 01:46:52;;;;;;;;;;;;;;;15.11;91.52;95715.03;5096528;28;1914;-52
2023/07/10 01:49:21;;;;;;;;;;;;;;;14.90;92.01;95715.63;5096382;28;1052;-52
2023/07/10 01:51:48;;;;;;;;;;;;;;;15.01;92.07;95718.78;5096531;28;1036;-53
2023/07/10 01:54:15;;;;;;;;;;;;;;;15.25;90.60;95716.97;5096236;28;1004;-53
2023/07/10 01:56:41;;;;;;;;;;;;;;;15.32;90.01;95714.41;5096255;28;1044;-52
2023/07/10 01:59:07;;;;;;;;;;;;;;;15.28;90.25;95722.00;5096253;28;1989;-53
2023/07/10 02:01:33;;;;;;;;;;;;;;;15.36;90.29;95713.03;5095412;28;1055;-53
2023/07/10 02:03:59;;;;;;;;;;;;;;;15.22;89.76;95717.34;5096265;28;1036;-53
2023/07/10 02:06:26;;;;;;;;;;;;;;;14.96;91.83;95713.06;5096068;28;1048;-53
2023/07/10 02:08:52;;;;;;;;;;;;;;;15.03;91.54;95710.53;5095961;28;1997;-53
2023/07/10 02:11:18;;;;;;;;;;;;;;;15.03;91.48;95711.34;5095882;28;1120;-53
2023/07/10 02:13:44;;;;;;;;;;;;;;;14.77;92.48;95714.31;5096178;28;1175;-53
2023/07/10 02:16:11;;;;;;;;;;;;;;;14.52;93.50;95718.91;5095996;28;973;-53
2023/07/10 02:18:37;;;;;;;;;;;;;;;14.26;95.15;95713.72;5095977;28;973;-53
2023/07/10 02:21:03;;;;;;;;;;;;;;;14.21;96.17;95708.88;5095949;28;981;-52
2023/07/10 02:23:30;;;;;;;;;;;;;;;14.58;94.50;95712.03;5095640;28;1099;-53
2023/07/10 02:25:56;;;;;;;;;;;;;;;14.84;93.53;95723.38;5095391;28;1604;-53
2023/07/10 02:28:22;;;;;;;;;;;;;;;14.91;92.93;95720.84;5095607;28;1910;-53
2023/07/10 02:30:48;;;;;;;;;;;;;;;14.95;93.20;95722.16;5095652;28;1871;-53
2023/07/10 02:33:14;;;;;;;;;;;;;;;14.98;92.37;95729.88;5095596;28;1064;-53
2023/07/10 02:35:40;;;;;;;;;;;;;;;15.00;92.14;95733.22;5095477;28;1232;-53
2023/07/10 02:38:07;;;;;;;;;;;;;;;15.10;92.16;95726.81;5095451;28;1021;-53
2023/07/10 02:40:33;;;;;;;;;;;;;;;14.78;91.20;95729.47;5095392;28;1067;-53
2023/07/10 02:42:59;;;;;;;;;;;;;;;14.41;92.49;95735.41;5095584;28;985;-53
2023/07/10 02:45:26;;;;;;;;;;;;;;;14.32;93.62;95737.25;5095191;28;1033;-53
2023/07/10 02:47:52;;;;;;;;;;;;;;;14.39;93.66;95738.25;5095146;28;1905;-53
2023/07/10 02:50:18;;;;;;;;;;;;;;;14.41;92.57;95735.41;5095247;28;1028;-53
2023/07/10 02:52:44;;;;;;;;;;;;;;;14.35;92.99;95741.47;5095209;28;972;-53
2023/07/10 02:55:10;;;;;;;;;;;;;;;14.30;93.66;95744.66;5095083;28;1867;-53
2023/07/10 02:57:36;;;;;;;;;;;;;;;14.39;93.14;95743.63;5095339;28;1223;-53
2023/07/10 03:00:02;;;;;;;;;;;;;;;14.47;93.27;95740.09;5095191;28;1056;-53
2023/07/10 03:02:28;;;;;;;;;;;;;;;14.35;93.68;95741.47;5095038;28;1035;-52
2023/07/10 03:04:54;;;;;;;;;;;;;;;14.39;94.46;95745.50;5095071;28;1199;-53
2023/07/10 03:07:20;;;;;;;;;;;;;;;14.48;92.90;95751.72;5094704;28;1994;-53
2023/07/10 03:09:46;;;;;;;;;;;;;;;14.63;92.83;95750.03;5094588;28;1105;-53
2023/07/10 03:12:13;;;;;;;;;;;;;;;14.76;92.02;95760.22;5094895;28;977;-53
2023/07/10 03:14:39;;;;;;;;;;;;;;;14.62;92.42;95761.78;5094801;28;1024;-53
2023/07/10 03:17:05;;;;;;;;;;;;;;;14.50;93.03;95757.75;5094782;28;992;-53
2023/07/10 03:19:31;;;;;;;;;;;;;;;14.39;93.23;95764.31;5094679;28;1029;-53
2023/07/10 03:21:57;;;;;;;;;;;;;;;14.44;93.40;95772.72;5094617;28;1063;-53
2023/07/10 03:24:24;;;;;;;;;;;;;;;14.42;93.70;95764.00;5094400;28;1614;-53
2023/07/10 03:26:50;;;;;;;;;;;;;;;14.49;94.16;95764.97;5094333;28;2019;-53
2023/07/10 03:29:16;;;;;;;;;;;;;;;14.53;93.43;95766.34;5094441;28;1072;-53
2023/07/10 03:31:42;;;;;;;;;;;;;;;14.61;93.31;95769.03;5094551;28;1059;-53
2023/07/10 03:34:12;;;;;;;;;;;;;;;14.71;93.32;95774.22;5094519;28;973;-53
2023/07/10 03:36:38;;;;;;;;;;;;;;;14.79;92.98;95768.81;5094285;28;1056;-52
2023/07/10 03:39:05;;;;;;;;;;;;;;;14.81;92.95;95774.03;5094522;28;1024;-53
2023/07/10 03:41:31;;;;;;;;;;;;;;;15.00;92.83;95778.19;5094196;28;1955;-53
2023/07/10 03:43:58;;;;;;;;;;;;;;;15.11;92.79;95771.59;5094197;28;1159;-52
2023/07/10 03:46:24;;;;;;;;;;;;;;;15.21;92.08;95780.28;5094061;28;1335;-53
2023/07/10 03:48:51;;;;;;;;;;;;;;;15.30;91.90;95790.03;5094202;28;1991;-53
2023/07/10 03:51:17;;;;;;;;;;;;;;;15.43;92.18;95792.16;5093930;28;1886;-52
2023/07/10 03:53:43;;;;;;;;;;;;;;;15.73;90.61;95787.81;5094012;28;1048;-53
2023/07/10 03:56:09;;;;;;;;;;;;;;;15.84;90.37;95786.59;5094173;28;1051;-53
2023/07/10 03:58:38;;;;;;;;;;;;;;;15.72;90.88;95798.75;5093948;28;1057;-53
2023/07/10 04:01:04;;;;;;;;;;;;;;;15.76;91.54;95786.63;5093841;28;1123;-53
2023/07/10 04:03:31;;;;;;;;;;;;;;;15.81;92.11;95795.03;5093822;28;1045;-53
2023/07/10 04:05:58;;;;;;;;;;;;;;;16.01;91.91;95795.38;5093799;28;1057;-53
2023/07/10 04:08:27;;;;;;;;;;;;;;;16.32;89.71;95811.53;5093883;28;1987;-53
2023/07/10 04:10:54;;;;;;;;;;;;;;;16.55;88.97;95805.28;5093776;28;1044;-53
2023/07/10 04:13:21;;;;;;;;;;;;;;;16.82;87.32;95805.69;5093677;28;1036;-53
2023/07/10 04:15:59;;;;;;;;;;;;;;;16.76;90.62;95809.97;5093814;28;972;-53
2023/07/10 04:18:29;;;;;;;;;;;;;;;16.55;91.07;95822.28;5093567;28;1013;-53
2023/07/10 04:20:56;;;;;;;;;;;;;;;16.48;91.34;95821.34;5093848;28;1043;-53
2023/07/10 04:23:22;;;;;;;;;;;;;;;16.76;91.26;95813.50;5093538;28;1062;-52
2023/07/10 04:25:48;;;;;;;;;;;;;;;17.02;87.53;95811.44;5093020;28;1541;-53
2023/07/10 04:28:15;;;;;;;;;;;;;;;17.21;88.51;95820.88;5093460;28;1906;-53
2023/07/10 04:30:41;;;;;;;;;;;;;;;17.21;85.90;95815.47;5093649;28;1231;-53
2023/07/10 04:33:08;;;;;;;;;;;;;;;17.35;83.41;95818.13;5092331;28;1002;-53
2023/07/10 04:35:34;;;;;;;;;;;;;;;17.53;83.10;95809.66;5093433;28;1039;-52
2023/07/10 04:38:00;;;;;;;;;;;;;;;17.66;82.23;95810.84;5093642;28;1064;-53
2023/07/10 04:40:26;;;;;;;;;;;;;;;17.75;82.05;95809.69;5093233;28;1045;-53
2023/07/10 04:42:54;;;;;;;;;;;;;;;17.92;81.56;95808.47;5093361;28;1026;-53
2023/07/10 04:45:20;;;;;;;;;;;;;;;18.04;80.53;95806.13;5093408;28;976;-53
2023/07/10 04:47:46;;;;;;;;;;;;;;;18.37;79.48;95811.03;5093208;28;1898;-53
2023/07/10 04:50:12;;;;;;;;;;;;;;;18.55;80.41;95815.97;5093502;28;1039;-53
2023/07/10 04:52:38;;;;;;;;;;;;;;;18.79;79.37;95809.31;5093507;28;1028;-53
2023/07/10 04:55:04;;;;;;;;;;;;;;;18.75;79.11;95801.78;5093338;28;1179;-53
2023/07/10 04:57:30;;;;;;;;;;;;;;;19.01;78.05;95809.28;5093347;28;977;-53
2023/07/10 04:59:56;;;;;;;;;;;;;;;18.89;78.03;95809.00;5093248;28;1045;-53
2023/07/10 05:02:22;;;;;;;;;;;;;;;18.84;78.19;95812.31;5093292;28;1011;-53
2023/07/10 05:04:48;;;;;;;;;;;;;;;18.81;79.40;95818.09;5093542;28;1003;-53
2023/07/10 05:07:14;;;;;;;;;;;;;;;19.02;77.98;95819.09;5093007;28;1898;-53
2023/07/10 05:09:40;;;;;;;;;;;;;;;19.10;79.52;95818.94;5093123;28;1092;-53
2023/07/10 05:12:06;;;;;;;;;;;;;;;19.29;78.78;95811.97;5093282;28;1033;-53
2023/07/10 05:14:32;;;;;;;;;;;;;;;19.20;79.76;95815.88;5093096;28;1048;-53
2023/07/10 05:16:58;;;;;;;;;;;;;;;19.23;78.79;95813.59;5093006;28;1100;-53
2023/07/10 05:19:24;;;;;;;;;;;;;;;19.41;78.76;95813.09;5093312;28;965;-53
2023/07/10 05:21:51;;;;;;;;;;;;;;;19.38;78.63;95807.25;5093287;28;1084;-53
2023/07/10 05:24:17;;;;;;;;;;;;;;;19.57;78.43;95808.38;5093088;28;1627;-53
2023/07/10 05:26:43;;;;;;;;;;;;;;;19.73;77.32;95812.66;5092673;28;1647;-53
2023/07/10 05:29:09;;;;;;;;;;;;;;;19.83;77.04;95810.41;5093040;28;1880;-53
2023/07/10 05:31:35;;;;;;;;;;;;;;;20.06;75.73;95821.75;5093072;28;1006;-53
2023/07/10 05:34:01;;;;;;;;;;;;;;;20.12;77.05;95820.09;5092924;28;1003;-53
2023/07/10 05:36:27;;;;;;;;;;;;;;;20.24;75.24;95818.47;5093589;28;968;-53
2023/07/10 05:38:53;;;;;;;;;;;;;;;20.07;74.70;95815.28;5096790;28;945;-53
2023/07/10 05:41:19;;;;;;;;;;;;;;;20.08;75.32;95819.66;5096666;28;1051;-53
2023/07/10 05:43:45;;;;;;;;;;;;;;;20.22;73.79;95817.00;5096628;28;980;-53
2023/07/10 05:46:11;;;;;;;;;;;;;;;20.45;71.95;95812.03;5096373;28;1040;-53
2023/07/10 05:48:37;;;;;;;;;;;;;;;20.73;70.68;95815.63;5096299;28;1987;-53
2023/07/10 05:51:04;;;;;;;;;;;;;;;20.80;70.02;95828.19;5096626;28;996;-53
2023/07/10 05:53:30;;;;;;;;;;;;;;;20.81;69.70;95823.56;5096306;28;1586;-53
2023/07/10 05:55:57;;;;;;;;;;;;;;;21.01;71.33;95824.41;5096320;28;1108;-53
2023/07/10 05:58:24;;;;;;;;;;;;;;;21.03;72.14;95818.78;5096267;28;1008;-53
2023/07/10 06:00:52;;;;;;;;;;;;;;;20.94;70.41;95811.88;5096130;28;1044;-53
2023/07/10 06:03:18;;;;;;;;;;;;;;;21.04;68.02;95817.75;5096411;28;980;-53
2023/07/10 06:05:58;;;;;;;;;;;;;;;21.11;70.93;95818.53;5096023;28;1065;-53
2023/07/10 06:08:25;;;;;;;;;;;;;;;21.43;69.43;95815.97;5096055;28;1985;-53
2023/07/10 06:10:51;;;;;;;;;;;;;;;21.55;67.81;95814.31;5096148;28;1025;-54
2023/07/10 06:13:18;;;;;;;;;;;;;;;21.60;68.02;95813.66;5095894;28;1000;-54
2023/07/10 06:15:45;;;;;;;;;;;;;;;21.62;68.11;95811.56;5095866;28;1175;-54
2023/07/10 06:18:11;;;;;;;;;;;;;;;21.57;68.61;95814.94;5095848;28;1053;-53
2023/07/10 06:20:37;;;;;;;;;;;;;;;21.57;67.19;95822.25;5095927;28;961;-53
2023/07/10 06:23:03;;;;;;;;;;;;;;;21.93;66.76;95819.00;5095799;28;1072;-53
2023/07/10 06:25:30;;;;;;;;;;;;;;;22.14;64.39;95817.00;5095582;28;1631;-53
2023/07/10 06:27:56;;;;;;;;;;;;;;;22.16;64.71;95815.75;5095490;28;1914;-53
2023/07/10 06:30:22;;;;;;;;;;;;;;;22.33;64.52;95821.56;5095571;28;965;-53
2023/07/10 06:32:48;;;;;;;;;;;;;;;22.37;65.67;95822.78;5095594;28;1097;-53
2023/07/10 06:35:14;;;;;;;;;;;;;;;22.46;64.89;95814.34;5095483;28;1041;-53
2023/07/10 06:37:41;;;;;;;;;;;;;;;22.28;63.62;95812.38;5095488;28;1561;-53
2023/07/10 06:40:09;;;;;;;;;;;;;;;22.57;64.79;95817.19;5095643;28;1033;-53
2023/07/10 06:42:36;;;;;;;;;;;;;;;22.57;64.30;95817.19;5095405;28;1152;-54
2023/07/10 06:45:02;;;;;;;;;;;;;;;22.54;65.49;95814.91;5095276;28;1039;-54
2023/07/10 06:47:30;;;;;;;;;;;;;;;22.49;64.17;95811.19;5094837;28;1996;-53
2023/07/10 06:49:56;;;;;;;;;;;;;;;22.63;64.43;95806.47;5095447;28;973;-53
2023/07/10 06:52:22;;;;;;;;;;;;;;;22.87;64.44;95810.28;5095173;28;1029;-53
2023/07/10 06:54:49;;;;;;;;;;;;;;;23.13;64.69;95803.78;5095182;28;1024;-53
2023/07/10 06:57:15;;;;;;;;;;;;;;;23.15;63.31;95810.69;5095005;28;1056;-53
2023/07/10 06:59:41;;;;;;;;;;;;;;;23.35;64.57;95802.31;5095048;28;1103;-54
2023/07/10 07:02:08;;;;;;;;;;;;;;;23.37;63.95;95802.06;5095046;28;1108;-54
2023/07/10 07:04:34;;;;;;;;;;;;;;;23.26;66.00;95797.34;5094880;28;1873;-53
2023/07/10 07:07:00;;;;;;;;;;;;;;;23.42;65.42;95804.13;5094895;28;1987;-55
2023/07/10 07:09:26;;;;;;;;;;;;;;;23.50;62.97;95804.66;5094950;28;1024;-53
2023/07/10 07:11:52;;;;;;;;;;;;;;;23.46;63.56;95798.00;5094854;28;969;-54
2023/07/10 07:14:18;;;;;;;;;;;;;;;23.54;62.87;95802.31;5094614;28;1045;-55
2023/07/10 07:16:44;;;;;;;;;;;;;;;23.88;65.44;95806.34;5094982;28;997;-54
2023/07/10 07:19:10;;;;;;;;;;;;;;;23.97;64.22;95802.25;5094852;28;909;-54
2023/07/10 07:21:36;;;;;;;;;;;;;;;24.11;63.36;95802.06;5094797;28;1000;-54
2023/07/10 07:24:03;;;;;;;;;;;;;;;24.07;63.13;95798.16;5094545;28;1534;-54
2023/07/10 07:26:29;;;;;;;;;;;;;;;24.19;64.83;95798.19;5094145;28;1328;-54
2023/07/10 07:28:55;;;;;;;;;;;;;;;24.43;63.91;95796.38;5094377;28;1998;-54
2023/07/10 07:31:21;;;;;;;;;;;;;;;24.45;63.87;95794.25;5094611;28;1205;-54
2023/07/10 07:33:48;;;;;;;;;;;;;;;24.52;65.25;95789.56;5094529;28;1000;-54
2023/07/10 07:36:14;;;;;;;;;;;;;;;24.62;63.96;95783.53;5094501;28;985;-54
2023/07/10 07:38:40;;;;;;;;;;;;;;;24.82;64.00;95785.97;5094314;28;1864;-55
2023/07/10 07:41:07;;;;;;;;;;;;;;;24.87;63.64;95781.44;5094364;28;1093;-55
2023/07/10 07:43:33;;;;;;;;;;;;;;;25.00;64.19;95785.00;5094178;28;949;-54
2023/07/10 07:45:59;;;;;;;;;;;;;;;25.31;61.47;95776.50;5094359;28;1032;-54
2023/07/10 07:48:25;;;;;;;;;;;;;;;25.47;60.78;95774.09;5092829;28;1992;-55
2023/07/10 07:50:55;;;;;;;;;;;;;;;25.26;62.70;95767.31;5094002;28;1061;-55
2023/07/10 07:53:21;;;;;;;;;;;;;;;25.37;61.75;95774.69;5094019;28;1049;-54
2023/07/10 07:55:47;;;;;;;;;;;;;;;25.33;59.31;95770.78;5094015;28;992;-53
2023/07/10 07:58:13;;;;;;;;;;;;;;;25.70;62.41;95770.47;5093761;28;1064;-55
2023/07/10 08:00:40;;;;;;;;;;;;;;;25.95;62.01;95763.91;5093443;28;976;-55
2023/07/10 08:03:08;;;;;;;;;;;;;;;26.15;59.71;95769.78;5094089;28;1043;-54
2023/07/10 08:05:34;;;;;;;;;;;;;;;26.34;58.69;95764.94;5093827;28;1681;-55
2023/07/10 08:08:01;;;;;;;;;;;;;;;26.36;57.73;95761.97;5093735;28;1997;-54
2023/07/10 08:10:31;;;;;;;;;;;;;;;26.40;60.47;95758.47;5093728;28;1024;-55
2023/07/10 08:12:57;;;;;;;;;;;;;;;26.35;58.33;95754.78;5094051;28;957;-55
2023/07/10 08:15:23;;;;;;;;;;;;;;;26.60;57.13;95763.53;5093794;28;993;-55
2023/07/10 08:17:49;;;;;;;;;;;;;;;26.62;57.68;95764.09;5093648;28;1025;-55
2023/07/10 08:20:15;;;;;;;;;;;;;;;26.62;56.05;95758.63;5093562;28;1038;-55
2023/07/10 08:26:03;;;;;;;;;;;;;;;26.92;54.79;95754.75;5093472;28;1529;-54
2023/07/10 08:28:30;;;;;;;;;;;;;;;27.10;55.52;95753.63;5093519;28;1983;-54
2023/07/10 08:30:57;;;;;;;;;;;;;;;27.26;54.73;95760.22;5093578;28;1183;-54
2023/07/10 08:33:23;;;;;;;;;;;;;;;27.21;52.34;95763.69;5093465;28;1116;-54
2023/07/10 08:35:54;;;;;;;;;;;;;;;27.10;53.21;95756.38;5093466;28;980;-54
2023/07/10 08:38:20;;;;;;;;;;;;;;;27.29;52.35;95759.72;5093414;28;1025;-54
2023/07/10 08:40:47;;;;;;;;;;;;;;;27.40;53.97;95747.81;5093675;28;1032;-54
2023/07/10 08:43:14;;;;;;;;;;;;;;;27.50;52.96;95746.28;5093528;28;1024;-54
2023/07/10 08:45:41;;;;;;;;;;;;;;;27.52;53.26;95744.13;5093404;28;1859;-54
2023/07/10 08:48:17;;;;;;;;;;;;;;;27.39;51.20;95748.88;5093306;28;1989;-53
2023/07/10 08:50:44;;;;;;;;;;;;;;;27.67;53.38;95757.22;5093621;28;969;-53
2023/07/10 08:53:16;;;;;;;;;;;;;;;27.75;51.98;95754.84;5093474;28;1016;-53
2023/07/10 08:55:42;;;;;;;;;;;;;;;27.77;52.04;95749.09;5093522;28;1047;-54
2023/07/10 08:58:16;;;;;;;;;;;;;;;27.83;52.56;95748.94;5093359;28;1201;-53
2023/07/10 09:00:44;;;;;;;;;;;;;;;27.61;53.30;95742.59;5093342;28;1059;-53
2023/07/10 09:03:16;;;;;;;;;;;;;;;27.75;53.19;95748.53;5093201;28;1213;-54
2023/07/10 09:05:47;;;;;;;;;;;;;;;27.91;48.81;95757.84;5093368;28;1022;-54
2023/07/10 09:08:14;;;;;;;;;;;;;;;27.96;51.48;95744.16;5093300;28;1934;-54
2023/07/10 09:10:47;;;;;;;;;;;;;;;28.15;49.06;95740.00;5094118;28;1103;-54
2023/07/10 09:13:16;;;;;;;;;;;;;;;28.17;46.87;95746.06;5097136;28;956;-54
2023/07/10 09:15:49;;;;;;;;;;;;;;;28.00;49.29;95732.41;5097049;28;1506;-54
2023/07/10 09:18:51;;;;;;;;;;;;;;;28.01;49.24;95735.97;5097224;28;1015;-53
2023/07/10 09:21:18;;;;;;;;;;;;;;;28.04;49.61;95732.72;5034491;28;1453;-54
2023/07/10 09:23:45;;;;;;;;;;;;;;;28.10;48.67;95734.44;5085079;28;1045;-53
2023/07/10 09:26:13;;;;;;;;;;;;;;;28.17;47.59;95729.56;5096740;28;1624;-54
2023/07/10 09:28:40;;;;;;;;;;;;;;;28.20;47.21;95734.53;5097043;28;1914;-53
2023/07/10 09:31:09;;;;;;;;;;;;;;;28.23;48.31;95724.94;5096997;28;1064;-53
2023/07/10 09:33:43;;;;;;;;;;;;;;;28.20;47.44;95733.72;5096868;28;1020;-53
2023/07/10 09:36:14;;;;;;;;;;;;;;;28.29;45.90;95736.84;5096807;28;1051;-53
2023/07/10 09:38:41;;;;;;;;;;;;;;;28.22;48.49;95732.34;5096636;28;1565;-53
2023/07/10 09:41:18;;;;;;;;;;;;;;;28.33;47.46;95735.22;5096635;28;1120;-54
2023/07/10 09:43:57;;;;;;;;;;;;;;;28.39;46.29;95734.19;5095380;28;1037;-54
2023/07/10 09:46:25;;;;;;;;;;;;;;;28.47;45.91;95738.38;5096470;28;1036;-53
2023/07/10 09:48:53;;;;;;;;;;;;;;;28.42;48.10;95707.00;5096395;28;1998;-54
2023/07/10 09:51:19;;;;;;;;;;;;;;;28.67;44.34;95735.03;5096577;28;1127;-54
2023/07/10 09:53:50;;;;;;;;;;;;;;;28.69;47.45;95730.91;5096378;28;1088;-53
2023/07/10 09:56:21;;;;;;;;;;;;;;;28.69;44.17;95730.91;5096387;28;1052;-53
2023/07/10 09:58:48;;;;;;;;;;;;;;;28.56;44.86;95721.16;5096398;28;1059;-54
2023/07/10 10:01:14;;;;;;;;;;;;;;;28.66;44.20;95725.94;5096171;28;1089;-54
2023/07/10 10:03:43;;;;;;;;;;;;;;;28.35;46.16;95713.78;5094987;28;1076;-54
2023/07/10 10:06:21;;;;;;;;;;;;;;;28.17;45.16;95723.22;5096311;28;1024;-54
2023/07/10 10:08:47;;;;;;;;;;;;;;;28.32;43.24;95719.81;5096113;28;1914;-54
2023/07/10 10:11:13;;;;;;;;;;;;;;;28.47;44.16;95716.38;5096034;28;1055;-54
2023/07/10 10:13:40;;;;;;;;;;;;;;;28.54;44.31;95712.34;5096044;28;977;-54
2023/07/10 10:16:24;;;;;;;;;;;;;;;28.55;42.41;95710.41;5095909;28;1060;-54
2023/07/10 10:19:13;;;;;;;;;;;;;;;28.67;44.44;95699.28;5096077;28;972;-54
2023/07/10 10:21:40;;;;;;;;;;;;;;;28.75;41.39;95716.09;5087627;28;1819;-54
2023/07/10 10:24:09;;;;;;;;;;;;;;;28.82;42.52;95688.38;5095093;28;1534;-55
2023/07/10 10:26:51;;;;;;;;;;;;;;;28.86;41.97;95689.50;5095357;28;1391;-54
2023/07/10 10:29:29;;;;;;;;;;;;;;;28.91;44.96;95681.28;5095722;28;1973;-55
2023/07/10 10:32:07;;;;;;;;;;;;;;;28.80;40.99;95688.63;5095498;28;1097;-54
2023/07/10 10:34:46;;;;;;;;;;;;;;;28.70;40.11;95693.22;5095517;28;1027;-54
2023/07/10 10:37:31;;;;;;;;;;;;;;;28.81;40.70;95694.97;5094546;28;1222;-55
2023/07/10 10:39:59;;;;;;;;;;;;;;;28.89;40.71;95690.88;5095437;28;1053;-54
2023/07/10 10:42:25;;;;;;;;;;;;;;;28.82;38.77;95688.38;5095292;28;1052;-54
2023/07/10 10:44:51;;;;;;;;;;;;;;;28.81;38.37;95700.47;5095420;28;1049;-54
2023/07/10 10:47:23;;;;;;;;;;;;;;;28.84;39.72;95683.44;5095035;28;1897;-54
2023/07/10 10:49:49;;;;;;;;;;;;;;;28.89;38.30;95685.38;5095469;28;1027;-54
2023/07/10 10:52:21;;;;;;;;;;;;;;;28.82;40.18;95674.63;5095122;28;1112;-54
2023/07/10 10:54:50;;;;;;;;;;;;;;;28.84;38.65;95680.69;5095365;28;1064;-54
2023/07/10 10:57:31;;;;;;;;;;;;;;;28.87;35.19;95691.16;5095155;28;1067;-54
2023/07/10 11:00:24;;;;;;;;;;;;;;;28.88;36.76;95681.00;5095084;28;1036;-54
2023/07/10 11:02:57;;;;;;;;;;;;;;;28.97;37.00;95680.22;5071596;28;1258;-54
2023/07/10 11:05:23;;;;;;;;;;;;;;;29.08;37.08;95678.34;5095069;28;1044;-54
2023/07/10 11:07:52;;;;;;;;;;;;;;;29.04;37.99;95671.72;5094911;28;1998;-54
2023/07/10 11:10:23;;;;;;;;;;;;;;;29.08;39.42;95661.00;5094886;28;961;-54
2023/07/10 11:12:49;;;;;;;;;;;;;;;29.00;37.87;95668.66;5094891;28;1053;-54
2023/07/10 11:15:17;;;;;;;;;;;;;;;28.81;37.90;95659.19;5094940;28;1004;-54
2023/07/10 11:17:46;;;;;;;;;;;;;;;28.82;38.46;95658.09;5094891;28;993;-53
2023/07/10 11:20:14;;;;;;;;;;;;;;;28.93;37.01;95659.84;5094772;28;1033;-54
2023/07/10 11:22:48;;;;;;;;;;;;;;;28.95;37.61;95660.41;5094727;28;988;-53
2023/07/10 11:25:31;;;;;;;;;;;;;;;28.83;37.19;95651.50;5094391;28;1313;-54
2023/07/10 11:28:00;;;;;;;;;;;;;;;28.89;38.75;95652.34;5094394;28;1978;-54
2023/07/10 11:30:34;;;;;;;;;;;;;;;29.11;37.63;95643.97;5094611;28;977;-54
2023/07/10 11:33:20;;;;;;;;;;;;;;;29.04;37.47;95652.47;5094530;28;1102;-54
2023/07/10 11:36:04;;;;;;;;;;;;;;;29.12;36.06;95651.13;5093613;28;1037;-54
2023/07/10 11:38:30;;;;;;;;;;;;;;;29.12;37.13;95651.97;5094270;28;1092;-54
2023/07/10 11:41:22;;;;;;;;;;;;;;;29.12;35.17;95657.47;5094362;28;1041;-54
2023/07/10 11:43:48;;;;;;;;;;;;;;;29.14;34.83;95651.72;5094388;28;1044;-54
2023/07/10 11:46:23;;;;;;;;;;;;;;;29.16;37.42;95649.56;5094325;28;1070;-54
2023/07/10 11:49:08;;;;;;;;;;;;;;;29.11;37.41;95644.78;5094334;28;1970;-54
2023/07/10 11:51:34;;;;;;;;;;;;;;;29.01;38.32;95631.81;5094179;28;1044;-54
2023/07/10 11:54:01;;;;;;;;;;;;;;;29.02;39.09;95625.19;5094133;28;1041;-54
2023/07/10 11:56:27;;;;;;;;;;;;;;;29.09;37.40;95633.22;5093928;28;992;-54
2023/07/10 11:58:53;;;;;;;;;;;;;;;29.26;38.71;95632.25;5094233;28;1016;-54
2023/07/10 12:01:21;;;;;;;;;;;;;;;29.22;39.51;95631.97;5092919;28;1089;-54
2023/07/10 12:03:48;;;;;;;;;;;;;;;29.16;40.41;95627.53;5094107;28;1040;-54
2023/07/10 12:06:15;;;;;;;;;;;;;;;29.13;39.27;95617.03;5094022;28;1017;-54
2023/07/10 12:08:43;;;;;;;;;;;;;;;29.20;40.22;95615.69;5093758;28;1994;-54
2023/07/10 12:11:28;;;;;;;;;;;;;;;29.20;41.73;95610.19;5093740;28;1049;-54
2023/07/10 12:13:54;;;;;;;;;;;;;;;29.14;37.39;95621.44;5093759;28;1085;-51
2023/07/10 12:16:21;;;;;;;;;;;;;;;29.09;38.11;95613.13;5093808;28;1131;-51
2023/07/10 12:18:47;;;;;;;;;;;;;;;29.12;37.85;95609.84;5093695;28;1025;-51
2023/07/10 12:21:22;;;;;;;;;;;;;;;29.24;39.92;95607.72;5093580;28;1060;-51
2023/07/10 12:24:00;;;;;;;;;;;;;;;29.28;40.70;95600.59;5093614;28;1021;-51
2023/07/10 12:26:26;;;;;;;;;;;;;;;29.00;40.07;95594.34;5090606;28;1595;-51
2023/07/10 12:28:53;;;;;;;;;;;;;;;28.99;39.32;95602.91;5093692;28;2001;-51
2023/07/10 12:31:19;;;;;;;;;;;;;;;28.99;39.41;95598.22;5093640;28;1107;-51
2023/07/10 12:33:50;;;;;;;;;;;;;;;29.01;38.14;95603.47;5093631;28;1028;-51
2023/07/10 12:36:27;;;;;;;;;;;;;;;29.16;38.16;95597.25;5093400;28;1578;-51
2023/07/10 12:38:54;;;;;;;;;;;;;;;29.15;38.09;95590.06;5093545;28;1196;-51
2023/07/10 12:41:22;;;;;;;;;;;;;;;29.07;39.06;95590.56;5093602;28;1024;-51
2023/07/10 12:43:50;;;;;;;;;;;;;;;29.09;37.99;95594.69;5093476;28;1131;-52
2023/07/10 12:46:21;;;;;;;;;;;;;;;29.15;37.98;95598.31;5095494;28;1052;-52
2023/07/10 12:48:48;;;;;;;;;;;;;;;29.12;37.83;95590.56;5097580;28;1914;-52
2023/07/10 12:51:23;;;;;;;;;;;;;;;29.02;37.73;95589.41;5097529;28;1017;-52
2023/07/10 12:53:51;;;;;;;;;;;;;;;28.87;37.87;95592.06;5097590;28;1025;-51
2023/07/10 12:56:27;;;;;;;;;;;;;;;29.01;38.07;95586.94;5097513;28;1041;-51
2023/07/10 12:58:55;;;;;;;;;;;;;;;29.06;37.51;95583.38;5097551;28;957;-52
2023/07/10 13:01:27;;;;;;;;;;;;;;;29.19;38.43;95575.47;5097360;28;1953;-52
2023/07/10 13:04:05;;;;;;;;;;;;;;;29.29;37.36;95571.97;5097550;28;1017;-52
2023/07/10 13:06:31;;;;;;;;;;;;;;;29.32;38.46;95579.66;5097265;28;1033;-52
2023/07/10 13:09:00;;;;;;;;;;;;;;;29.22;37.34;95579.63;5097195;28;1906;-52